sensor_id;sensor_type;location;lat;lon;timestamp;pressure;altitude;pressure_sealevel;temperature
67829;BMP280;54626;45.436;10.942;2023-04-24T00:00:23;99759.84;;;18.31
67829;BMP280;54626;45.436;10.942;2023-04-24T00:02:50;99757.94;;;18.33
67829;BMP280;54626;45.436;10.942;2023-04-24T00:05:19;99754.50;;;18.35
67829;BMP280;54626;45.436;10.942;2023-04-24T00:07:49;99752.47;;;18.24
67829;BMP280;54626;45.436;10.942;2023-04-24T00:10:18;99751.13;;;18.25
67829;BMP280;54626;45.436;10.942;2023-04-24T00:12:45;99743.22;;;18.21
67829;BMP280;54626;45.436;10.942;2023-04-24T00:15:14;99752.09;;;18.18
67829;BMP280;54626;45.436;10.942;2023-04-24T00:17:41;99738.22;;;18.20
67829;BMP280;54626;45.436;10.942;2023-04-24T00:20:08;99734.72;;;18.20
67829;BMP280;54626;45.436;10.942;2023-04-24T00:22:39;99731.78;;;18.18
67829;BMP280;54626;45.436;10.942;2023-04-24T00:25:08;99725.34;;;18.15
67829;BMP280;54626;45.436;10.942;2023-04-24T00:27:35;99723.06;;;18.12
67829;BMP280;54626;45.436;10.942;2023-04-24T00:30:03;99723.38;;;18.18
67829;BMP280;54626;45.436;10.942;2023-04-24T00:32:33;99717.19;;;18.08
67829;BMP280;54626;45.436;10.942;2023-04-24T00:35:02;99714.41;;;18.08
67829;BMP280;54626;45.436;10.942;2023-04-24T00:37:28;99707.81;;;18.03
67829;BMP280;54626;45.436;10.942;2023-04-24T00:39:54;99700.94;;;17.93
67829;BMP280;54626;45.436;10.942;2023-04-24T00:42:25;99707.84;;;17.80
67829;BMP280;54626;45.436;10.942;2023-04-24T00:44:52;99699.69;;;17.84
67829;BMP280;54626;45.436;10.942;2023-04-24T00:47:19;99699.59;;;17.82
67829;BMP280;54626;45.436;10.942;2023-04-24T00:49:46;99687.81;;;17.84
67829;BMP280;54626;45.436;10.942;2023-04-24T00:52:14;99689.88;;;17.83
67829;BMP280;54626;45.436;10.942;2023-04-24T00:54:46;99689.97;;;17.85
67829;BMP280;54626;45.436;10.942;2023-04-24T00:57:13;99684.38;;;17.85
67829;BMP280;54626;45.436;10.942;2023-04-24T00:59:42;99688.03;;;17.76
67829;BMP280;54626;45.436;10.942;2023-04-24T01:02:10;99686.09;;;17.79
67829;BMP280;54626;45.436;10.942;2023-04-24T01:04:42;99686.84;;;17.79
67829;BMP280;54626;45.436;10.942;2023-04-24T01:07:08;99685.47;;;17.80
67829;BMP280;54626;45.436;10.942;2023-04-24T01:09:40;99686.84;;;17.79
67829;BMP280;54626;45.436;10.942;2023-04-24T01:12:11;99683.31;;;17.67
67829;BMP280;54626;45.436;10.942;2023-04-24T01:14:40;99679.56;;;17.74
67829;BMP280;54626;45.436;10.942;2023-04-24T01:17:06;99675.16;;;17.71
67829;BMP280;54626;45.436;10.942;2023-04-24T01:19:33;99674.53;;;17.73
67829;BMP280;54626;45.436;10.942;2023-04-24T01:24:30;99666.03;;;17.71
67829;BMP280;54626;45.436;10.942;2023-04-24T01:26:56;99664.97;;;17.64
67829;BMP280;54626;45.436;10.942;2023-04-24T01:29:23;99659.47;;;17.66
67829;BMP280;54626;45.436;10.942;2023-04-24T01:31:52;99654.59;;;17.67
67829;BMP280;54626;45.436;10.942;2023-04-24T01:34:20;99644.06;;;17.65
67829;BMP280;54626;45.436;10.942;2023-04-24T01:36:47;99644.88;;;17.68
67829;BMP280;54626;45.436;10.942;2023-04-24T01:39:14;99641.13;;;17.63
67829;BMP280;54626;45.436;10.942;2023-04-24T01:41:42;99635.25;;;17.71
67829;BMP280;54626;45.436;10.942;2023-04-24T01:44:09;99635.66;;;17.65
67829;BMP280;54626;45.436;10.942;2023-04-24T01:46:40;99638.34;;;17.63
67829;BMP280;54626;45.436;10.942;2023-04-24T01:49:07;99636.97;;;17.53
67829;BMP280;54626;45.436;10.942;2023-04-24T01:51:34;99633.97;;;17.38
67829;BMP280;54626;45.436;10.942;2023-04-24T01:54:01;99631.41;;;17.19
67829;BMP280;54626;45.436;10.942;2023-04-24T01:56:35;99634.06;;;17.05
67829;BMP280;54626;45.436;10.942;2023-04-24T01:59:03;99634.94;;;17.08
67829;BMP280;54626;45.436;10.942;2023-04-24T02:01:34;99636.03;;;17.03
67829;BMP280;54626;45.436;10.942;2023-04-24T02:04:02;99640.16;;;17.02
67829;BMP280;54626;45.436;10.942;2023-04-24T02:06:29;99640.84;;;16.91
67829;BMP280;54626;45.436;10.942;2023-04-24T02:09:00;99651.63;;;16.74
67829;BMP280;54626;45.436;10.942;2023-04-24T02:11:27;99647.59;;;16.77
67829;BMP280;54626;45.436;10.942;2023-04-24T02:13:53;99648.00;;;16.83
67829;BMP280;54626;45.436;10.942;2023-04-24T02:16:20;99651.13;;;16.77
67829;BMP280;54626;45.436;10.942;2023-04-24T02:18:47;99639.47;;;16.69
67829;BMP280;54626;45.436;10.942;2023-04-24T02:21:16;99645.78;;;16.37
67829;BMP280;54626;45.436;10.942;2023-04-24T02:23:51;99653.91;;;16.45
67829;BMP280;54626;45.436;10.942;2023-04-24T02:26:17;99644.97;;;16.46
67829;BMP280;54626;45.436;10.942;2023-04-24T02:28:44;99639.97;;;16.45
67829;BMP280;54626;45.436;10.942;2023-04-24T02:31:11;99625.91;;;16.43
67829;BMP280;54626;45.436;10.942;2023-04-24T02:33:37;99630.63;;;16.40
67829;BMP280;54626;45.436;10.942;2023-04-24T02:36:04;99631.44;;;16.32
67829;BMP280;54626;45.436;10.942;2023-04-24T02:38:30;99631.19;;;16.28
67829;BMP280;54626;45.436;10.942;2023-04-24T02:40:56;99635.09;;;16.34
67829;BMP280;54626;45.436;10.942;2023-04-24T02:43:23;99637.25;;;16.35
67829;BMP280;54626;45.436;10.942;2023-04-24T02:45:50;99629.16;;;16.39
67829;BMP280;54626;45.436;10.942;2023-04-24T02:48:17;99626.81;;;16.36
67829;BMP280;54626;45.436;10.942;2023-04-24T02:50:46;99628.03;;;16.33
67829;BMP280;54626;45.436;10.942;2023-04-24T02:53:16;99626.19;;;16.26
67829;BMP280;54626;45.436;10.942;2023-04-24T02:55:43;99620.59;;;16.26
67829;BMP280;54626;45.436;10.942;2023-04-24T02:58:12;99616.97;;;16.24
67829;BMP280;54626;45.436;10.942;2023-04-24T03:00:39;99612.56;;;16.21
67829;BMP280;54626;45.436;10.942;2023-04-24T03:03:06;99615.25;;;16.19
67829;BMP280;54626;45.436;10.942;2023-04-24T03:05:33;99619.38;;;16.18
67829;BMP280;54626;45.436;10.942;2023-04-24T03:07:59;99613.66;;;16.16
67829;BMP280;54626;45.436;10.942;2023-04-24T03:10:26;99609.00;;;16.09
67829;BMP280;54626;45.436;10.942;2023-04-24T03:12:52;99608.94;;;15.97
67829;BMP280;54626;45.436;10.942;2023-04-24T03:15:21;99609.69;;;15.98
67829;BMP280;54626;45.436;10.942;2023-04-24T03:17:47;99613.56;;;16.04
67829;BMP280;54626;45.436;10.942;2023-04-24T03:20:15;99609.53;;;15.96
67829;BMP280;54626;45.436;10.942;2023-04-24T03:22:42;99612.91;;;15.94
67829;BMP280;54626;45.436;10.942;2023-04-24T03:25:09;99608.78;;;15.95
67829;BMP280;54626;45.436;10.942;2023-04-24T03:27:41;99617.75;;;15.94
67829;BMP280;54626;45.436;10.942;2023-04-24T03:30:08;99620.28;;;15.90
67829;BMP280;54626;45.436;10.942;2023-04-24T03:32:36;99613.44;;;15.81
67829;BMP280;54626;45.436;10.942;2023-04-24T03:35:06;99602.63;;;15.76
67829;BMP280;54626;45.436;10.942;2023-04-24T03:37:36;99598.97;;;15.73
67829;BMP280;54626;45.436;10.942;2023-04-24T03:40:03;99600.63;;;15.67
67829;BMP280;54626;45.436;10.942;2023-04-24T03:42:29;99596.97;;;15.65
67829;BMP280;54626;45.436;10.942;2023-04-24T03:44:56;99604.47;;;15.62
67829;BMP280;54626;45.436;10.942;2023-04-24T03:47:25;99607.84;;;15.61
67829;BMP280;54626;45.436;10.942;2023-04-24T03:49:51;99605.06;;;15.61
67829;BMP280;54626;45.436;10.942;2023-04-24T03:52:18;99606.19;;;15.67
67829;BMP280;54626;45.436;10.942;2023-04-24T03:54:45;99619.13;;;15.63
67829;BMP280;54626;45.436;10.942;2023-04-24T03:57:11;99617.94;;;15.66
67829;BMP280;54626;45.436;10.942;2023-04-24T03:59:38;99618.69;;;15.66
67829;BMP280;54626;45.436;10.942;2023-04-24T04:02:04;99614.91;;;15.62
67829;BMP280;54626;45.436;10.942;2023-04-24T04:04:31;99617.69;;;15.62
67829;BMP280;54626;45.436;10.942;2023-04-24T04:06:58;99615.50;;;15.60
67829;BMP280;54626;45.436;10.942;2023-04-24T04:09:27;99621.06;;;15.60
67829;BMP280;54626;45.436;10.942;2023-04-24T04:11:56;99621.81;;;15.51
67829;BMP280;54626;45.436;10.942;2023-04-24T04:14:22;99631.81;;;15.54
67829;BMP280;54626;45.436;10.942;2023-04-24T04:16:49;99630.59;;;15.57
67829;BMP280;54626;45.436;10.942;2023-04-24T04:19:20;99629.16;;;15.56
67829;BMP280;54626;45.436;10.942;2023-04-24T04:21:47;99629.72;;;15.55
67829;BMP280;54626;45.436;10.942;2023-04-24T04:24:21;99619.03;;;15.51
67829;BMP280;54626;45.436;10.942;2023-04-24T04:26:48;99616.25;;;15.51
67829;BMP280;54626;45.436;10.942;2023-04-24T04:29:18;99617.75;;;15.43
67829;BMP280;54626;45.436;10.942;2023-04-24T04:31:44;99624.66;;;15.42
67829;BMP280;54626;45.436;10.942;2023-04-24T04:34:11;99627.66;;;15.34
67829;BMP280;54626;45.436;10.942;2023-04-24T04:36:38;99645.94;;;15.37
67829;BMP280;54626;45.436;10.942;2023-04-24T04:39:07;99642.91;;;15.33
67829;BMP280;54626;45.436;10.942;2023-04-24T04:41:33;99652.19;;;15.17
67829;BMP280;54626;45.436;10.942;2023-04-24T04:44:09;99649.53;;;15.09
67829;BMP280;54626;45.436;10.942;2023-04-24T04:46:36;99666.56;;;14.95
67829;BMP280;54626;45.436;10.942;2023-04-24T04:49:03;99671.28;;;14.92
67829;BMP280;54626;45.436;10.942;2023-04-24T04:51:30;99682.13;;;14.88
67829;BMP280;54626;45.436;10.942;2023-04-24T04:53:59;99674.38;;;14.77
67829;BMP280;54626;45.436;10.942;2023-04-24T04:56:28;99673.63;;;14.96
67829;BMP280;54626;45.436;10.942;2023-04-24T04:58:56;99662.16;;;14.92
67829;BMP280;54626;45.436;10.942;2023-04-24T05:01:23;99637.69;;;14.99
67829;BMP280;54626;45.436;10.942;2023-04-24T05:03:50;99616.63;;;14.97
67829;BMP280;54626;45.436;10.942;2023-04-24T05:06:17;99650.91;;;14.80
67829;BMP280;54626;45.436;10.942;2023-04-24T05:08:43;99665.44;;;14.79
67829;BMP280;54626;45.436;10.942;2023-04-24T05:11:10;99667.63;;;14.80
67829;BMP280;54626;45.436;10.942;2023-04-24T05:13:36;99664.13;;;14.80
67829;BMP280;54626;45.436;10.942;2023-04-24T05:16:06;99669.84;;;14.91
67829;BMP280;54626;45.436;10.942;2023-04-24T05:18:33;99670.53;;;14.92
67829;BMP280;54626;45.436;10.942;2023-04-24T05:21:00;99662.31;;;15.03
67829;BMP280;54626;45.436;10.942;2023-04-24T05:23:27;99672.41;;;15.08
67829;BMP280;54626;45.436;10.942;2023-04-24T05:25:54;99667.44;;;15.06
67829;BMP280;54626;45.436;10.942;2023-04-24T05:28:20;99657.78;;;14.98
67829;BMP280;54626;45.436;10.942;2023-04-24T05:30:47;99664.50;;;15.04
67829;BMP280;54626;45.436;10.942;2023-04-24T05:33:14;99665.69;;;15.01
67829;BMP280;54626;45.436;10.942;2023-04-24T05:35:41;99652.22;;;14.98
67829;BMP280;54626;45.436;10.942;2023-04-24T05:38:14;99642.25;;;14.95
67829;BMP280;54626;45.436;10.942;2023-04-24T05:40:46;99635.78;;;14.93
67829;BMP280;54626;45.436;10.942;2023-04-24T05:43:13;99630.66;;;14.98
67829;BMP280;54626;45.436;10.942;2023-04-24T05:45:41;99628.91;;;14.94
67829;BMP280;54626;45.436;10.942;2023-04-24T05:48:07;99621.88;;;14.93
67829;BMP280;54626;45.436;10.942;2023-04-24T05:50:33;99621.75;;;14.91
67829;BMP280;54626;45.436;10.942;2023-04-24T05:53:03;99628.47;;;14.97
67829;BMP280;54626;45.436;10.942;2023-04-24T05:55:33;99623.34;;;14.94
67829;BMP280;54626;45.436;10.942;2023-04-24T05:57:59;99627.31;;;14.91
67829;BMP280;54626;45.436;10.942;2023-04-24T06:00:26;99618.22;;;14.99
67829;BMP280;54626;45.436;10.942;2023-04-24T06:02:53;99609.84;;;14.99
67829;BMP280;54626;45.436;10.942;2023-04-24T06:05:21;99607.53;;;14.96
67829;BMP280;54626;45.436;10.942;2023-04-24T06:07:48;99620.00;;;14.95
67829;BMP280;54626;45.436;10.942;2023-04-24T06:10:15;99626.28;;;14.96
67829;BMP280;54626;45.436;10.942;2023-04-24T06:12:43;99630.63;;;15.08
67829;BMP280;54626;45.436;10.942;2023-04-24T06:15:09;99643.00;;;14.96
67829;BMP280;54626;45.436;10.942;2023-04-24T06:17:39;99653.34;;;15.04
67829;BMP280;54626;45.436;10.942;2023-04-24T06:20:08;99662.59;;;14.98
67829;BMP280;54626;45.436;10.942;2023-04-24T06:22:37;99658.50;;;14.98
67829;BMP280;54626;45.436;10.942;2023-04-24T06:25:12;99653.53;;;14.97
67829;BMP280;54626;45.436;10.942;2023-04-24T06:27:38;99651.47;;;15.07
67829;BMP280;54626;45.436;10.942;2023-04-24T06:30:06;99653.97;;;15.03
67829;BMP280;54626;45.436;10.942;2023-04-24T06:32:32;99650.09;;;15.17
67829;BMP280;54626;45.436;10.942;2023-04-24T06:34:59;99653.63;;;15.27
67829;BMP280;54626;45.436;10.942;2023-04-24T06:37:25;99662.06;;;15.39
67829;BMP280;54626;45.436;10.942;2023-04-24T06:39:52;99661.63;;;15.42
67829;BMP280;54626;45.436;10.942;2023-04-24T06:42:18;99668.25;;;15.37
67829;BMP280;54626;45.436;10.942;2023-04-24T06:44:47;99675.44;;;15.31
67829;BMP280;54626;45.436;10.942;2023-04-24T06:47:13;99665.81;;;15.13
67829;BMP280;54626;45.436;10.942;2023-04-24T06:49:42;99669.50;;;14.97
67829;BMP280;54626;45.436;10.942;2023-04-24T06:52:09;99672.69;;;15.02
67829;BMP280;54626;45.436;10.942;2023-04-24T06:54:35;99670.25;;;14.88
67829;BMP280;54626;45.436;10.942;2023-04-24T06:57:02;99670.41;;;14.90
67829;BMP280;54626;45.436;10.942;2023-04-24T06:59:29;99667.88;;;14.94
67829;BMP280;54626;45.436;10.942;2023-04-24T07:01:57;99663.06;;;14.85
67829;BMP280;54626;45.436;10.942;2023-04-24T07:04:26;99659.25;;;14.90
67829;BMP280;54626;45.436;10.942;2023-04-24T07:06:53;99647.41;;;14.89
67829;BMP280;54626;45.436;10.942;2023-04-24T07:09:23;99640.03;;;14.94
67829;BMP280;54626;45.436;10.942;2023-04-24T07:11:51;99634.22;;;14.80
67829;BMP280;54626;45.436;10.942;2023-04-24T07:14:20;99626.47;;;14.79
67829;BMP280;54626;45.436;10.942;2023-04-24T07:16:47;99626.78;;;14.73
67829;BMP280;54626;45.436;10.942;2023-04-24T07:19:15;99613.25;;;14.89
67829;BMP280;54626;45.436;10.942;2023-04-24T07:21:43;99606.66;;;14.94
67829;BMP280;54626;45.436;10.942;2023-04-24T07:24:09;99614.16;;;14.91
67829;BMP280;54626;45.436;10.942;2023-04-24T07:26:37;99622.44;;;15.10
67829;BMP280;54626;45.436;10.942;2023-04-24T07:29:05;99612.00;;;15.10
67829;BMP280;54626;45.436;10.942;2023-04-24T07:31:32;99613.91;;;15.17
67829;BMP280;54626;45.436;10.942;2023-04-24T07:34:00;99608.56;;;15.31
67829;BMP280;54626;45.436;10.942;2023-04-24T07:36:35;99605.94;;;15.33
67829;BMP280;54626;45.436;10.942;2023-04-24T07:39:02;99614.72;;;15.39
67829;BMP280;54626;45.436;10.942;2023-04-24T07:41:28;99610.22;;;15.55
67829;BMP280;54626;45.436;10.942;2023-04-24T07:43:55;99612.72;;;15.60
67829;BMP280;54626;45.436;10.942;2023-04-24T07:46:25;99622.91;;;15.67
67829;BMP280;54626;45.436;10.942;2023-04-24T07:48:54;99626.00;;;15.71
67829;BMP280;54626;45.436;10.942;2023-04-24T07:51:38;99619.22;;;15.74
67829;BMP280;54626;45.436;10.942;2023-04-24T07:54:05;99626.41;;;15.77
67829;BMP280;54626;45.436;10.942;2023-04-24T07:56:33;99622.06;;;15.85
67829;BMP280;54626;45.436;10.942;2023-04-24T07:59:00;99621.50;;;16.08
67829;BMP280;54626;45.436;10.942;2023-04-24T08:01:27;99616.97;;;16.24
67829;BMP280;54626;45.436;10.942;2023-04-24T08:03:54;99621.34;;;16.27
67829;BMP280;54626;45.436;10.942;2023-04-24T08:06:21;99624.91;;;16.38
67829;BMP280;54626;45.436;10.942;2023-04-24T08:08:48;99633.59;;;16.54
67829;BMP280;54626;45.436;10.942;2023-04-24T08:11:17;99641.50;;;16.57
67829;BMP280;54626;45.436;10.942;2023-04-24T08:13:43;99641.44;;;16.78
67829;BMP280;54626;45.436;10.942;2023-04-24T08:16:10;99641.63;;;17.03
67829;BMP280;54626;45.436;10.942;2023-04-24T08:18:37;99643.53;;;17.23
67829;BMP280;54626;45.436;10.942;2023-04-24T08:21:03;99641.75;;;17.28
67829;BMP280;54626;45.436;10.942;2023-04-24T08:23:32;99639.69;;;17.40
67829;BMP280;54626;45.436;10.942;2023-04-24T08:25:59;99637.22;;;17.34
67829;BMP280;54626;45.436;10.942;2023-04-24T08:28:27;99628.63;;;17.42
67829;BMP280;54626;45.436;10.942;2023-04-24T08:30:54;99638.47;;;17.31
67829;BMP280;54626;45.436;10.942;2023-04-24T08:33:24;99639.56;;;17.38
67829;BMP280;54626;45.436;10.942;2023-04-24T08:35:52;99638.59;;;17.22
67829;BMP280;54626;45.436;10.942;2023-04-24T08:38:19;99643.06;;;17.38
67829;BMP280;54626;45.436;10.942;2023-04-24T08:40:47;99642.72;;;17.44
67829;BMP280;54626;45.436;10.942;2023-04-24T08:43:16;99638.31;;;17.52
67829;BMP280;54626;45.436;10.942;2023-04-24T08:45:42;99654.59;;;17.67
67829;BMP280;54626;45.436;10.942;2023-04-24T08:48:09;99656.06;;;17.68
67829;BMP280;54626;45.436;10.942;2023-04-24T08:50:57;99657.75;;;17.73
67829;BMP280;54626;45.436;10.942;2023-04-24T08:53:24;99661.66;;;17.91
67829;BMP280;54626;45.436;10.942;2023-04-24T08:55:54;99661.03;;;17.92
67829;BMP280;54626;45.436;10.942;2023-04-24T08:58:25;99659.47;;;17.66
67829;BMP280;54626;45.436;10.942;2023-04-24T09:00:57;99671.66;;;17.59
67829;BMP280;54626;45.436;10.942;2023-04-24T09:03:29;99676.00;;;17.74
67829;BMP280;54626;45.436;10.942;2023-04-24T09:05:58;99683.22;;;17.65
67829;BMP280;54626;45.436;10.942;2023-04-24T09:08:29;99685.25;;;17.76
67829;BMP280;54626;45.436;10.942;2023-04-24T09:10:57;99679.44;;;17.84
67829;BMP280;54626;45.436;10.942;2023-04-24T09:13:25;99680.50;;;17.79
67829;BMP280;54626;45.436;10.942;2023-04-24T09:15:52;99692.41;;;17.91
67829;BMP280;54626;45.436;10.942;2023-04-24T09:18:20;99690.47;;;17.93
67829;BMP280;54626;45.436;10.942;2023-04-24T09:21:03;99684.69;;;18.14
67829;BMP280;54626;45.436;10.942;2023-04-24T09:23:41;99681.81;;;18.37
67829;BMP280;54626;45.436;10.942;2023-04-24T09:26:09;99684.84;;;18.41
67829;BMP280;54626;45.436;10.942;2023-04-24T09:28:40;99687.78;;;18.68
67829;BMP280;54626;45.436;10.942;2023-04-24T09:31:13;99686.28;;;18.78
67829;BMP280;54626;45.436;10.942;2023-04-24T09:33:53;99686.06;;;19.12
67829;BMP280;54626;45.436;10.942;2023-04-24T09:36:27;99686.63;;;18.97
67829;BMP280;54626;45.436;10.942;2023-04-24T09:38:58;99683.72;;;18.95
67829;BMP280;54626;45.436;10.942;2023-04-24T09:41:25;99683.38;;;18.89
67829;BMP280;54626;45.436;10.942;2023-04-24T09:43:53;99679.31;;;18.79
67829;BMP280;54626;45.436;10.942;2023-04-24T09:46:20;99680.97;;;19.09
67829;BMP280;54626;45.436;10.942;2023-04-24T09:48:48;99676.53;;;19.44
67829;BMP280;54626;45.436;10.942;2023-04-24T09:51:16;99672.59;;;19.49
67829;BMP280;54626;45.436;10.942;2023-04-24T09:53:46;99676.00;;;19.88
67829;BMP280;54626;45.436;10.942;2023-04-24T09:56:13;99678.72;;;19.86
67829;BMP280;54626;45.436;10.942;2023-04-24T09:58:39;99682.34;;;19.88
67829;BMP280;54626;45.436;10.942;2023-04-24T10:01:06;99680.78;;;19.72
67829;BMP280;54626;45.436;10.942;2023-04-24T10:03:35;99685.28;;;19.63
67829;BMP280;54626;45.436;10.942;2023-04-24T10:06:03;99678.19;;;19.89
67829;BMP280;54626;45.436;10.942;2023-04-24T10:08:36;99681.84;;;20.20
67829;BMP280;54626;45.436;10.942;2023-04-24T10:11:03;99687.25;;;20.58
67829;BMP280;54626;45.436;10.942;2023-04-24T10:13:30;99677.34;;;20.42
67829;BMP280;54626;45.436;10.942;2023-04-24T10:15:58;99680.03;;;20.69
67829;BMP280;54626;45.436;10.942;2023-04-24T10:18:25;99675.06;;;20.39
67829;BMP280;54626;45.436;10.942;2023-04-24T10:20:53;99677.63;;;20.48
67829;BMP280;54626;45.436;10.942;2023-04-24T10:23:22;99675.13;;;20.41
67829;BMP280;54626;45.436;10.942;2023-04-24T10:26:02;99683.19;;;20.33
67829;BMP280;54626;45.436;10.942;2023-04-24T10:28:31;99673.94;;;20.59
67829;BMP280;54626;45.436;10.942;2023-04-24T10:30:59;99682.88;;;21.00
67829;BMP280;54626;45.436;10.942;2023-04-24T10:33:26;99684.50;;;21.05
67829;BMP280;54626;45.436;10.942;2023-04-24T10:35:54;99694.78;;;21.62
67829;BMP280;54626;45.436;10.942;2023-04-24T10:38:26;99684.22;;;21.45
67829;BMP280;54626;45.436;10.942;2023-04-24T10:41:09;99690.03;;;21.33
67829;BMP280;54626;45.436;10.942;2023-04-24T10:43:39;99702.09;;;21.36
67829;BMP280;54626;45.436;10.942;2023-04-24T10:46:08;99699.03;;;21.45
67829;BMP280;54626;45.436;10.942;2023-04-24T10:48:42;99697.63;;;21.46
67829;BMP280;54626;45.436;10.942;2023-04-24T10:51:10;99711.66;;;21.62
67829;BMP280;54626;45.436;10.942;2023-04-24T10:53:38;99705.25;;;21.59
67829;BMP280;54626;45.436;10.942;2023-04-24T10:56:08;99699.38;;;21.38
67829;BMP280;54626;45.436;10.942;2023-04-24T10:58:41;99702.53;;;20.84
67829;BMP280;54626;45.436;10.942;2023-04-24T11:01:31;99703.75;;;21.25
67829;BMP280;54626;45.436;10.942;2023-04-24T11:04:00;99708.09;;;21.28
67829;BMP280;54626;45.436;10.942;2023-04-24T11:06:36;99710.28;;;21.45
67829;BMP280;54626;45.436;10.942;2023-04-24T11:09:10;99701.91;;;21.32
67829;BMP280;54626;45.436;10.942;2023-04-24T11:11:44;99705.91;;;21.42
67829;BMP280;54626;45.436;10.942;2023-04-24T11:14:14;99709.25;;;21.54
67829;BMP280;54626;45.436;10.942;2023-04-24T11:21:40;99707.31;;;21.74
67829;BMP280;54626;45.436;10.942;2023-04-24T11:26:53;99702.22;;;21.70
67829;BMP280;54626;45.436;10.942;2023-04-24T11:29:21;99697.66;;;22.12
67829;BMP280;54626;45.436;10.942;2023-04-24T11:31:49;99704.59;;;21.76
67829;BMP280;54626;45.436;10.942;2023-04-24T11:34:18;99700.66;;;22.00
67829;BMP280;54626;45.436;10.942;2023-04-24T11:36:46;99700.47;;;22.12
67829;BMP280;54626;45.436;10.942;2023-04-24T11:39:14;99705.28;;;22.44
67829;BMP280;54626;45.436;10.942;2023-04-24T11:41:41;99694.03;;;22.61
67829;BMP280;54626;45.436;10.942;2023-04-24T11:44:09;99689.53;;;22.20
67829;BMP280;54626;45.436;10.942;2023-04-24T11:46:35;99696.94;;;22.82
67829;BMP280;54626;45.436;10.942;2023-04-24T11:49:06;99693.56;;;22.86
67829;BMP280;54626;45.436;10.942;2023-04-24T11:51:34;99690.81;;;23.05
67829;BMP280;54626;45.436;10.942;2023-04-24T11:54:18;99692.09;;;22.66
67829;BMP280;54626;45.436;10.942;2023-04-24T11:56:46;99685.88;;;22.88
67829;BMP280;54626;45.436;10.942;2023-04-24T11:59:13;99690.47;;;23.17
67829;BMP280;54626;45.436;10.942;2023-04-24T12:01:44;99696.72;;;23.13
67829;BMP280;54626;45.436;10.942;2023-04-24T12:04:12;99693.19;;;23.13
67829;BMP280;54626;45.436;10.942;2023-04-24T12:06:39;99690.66;;;23.01
67829;BMP280;54626;45.436;10.942;2023-04-24T12:09:06;99683.25;;;23.50
67829;BMP280;54626;45.436;10.942;2023-04-24T12:11:55;99696.97;;;23.19
67829;BMP280;54626;45.436;10.942;2023-04-24T12:14:23;99687.22;;;23.63
67829;BMP280;54626;45.436;10.942;2023-04-24T12:16:50;99696.09;;;23.34
67829;BMP280;54626;45.436;10.942;2023-04-24T12:19:24;99688.38;;;22.98
67829;BMP280;54626;45.436;10.942;2023-04-24T12:22:02;99693.69;;;23.27
67829;BMP280;54626;45.436;10.942;2023-04-24T12:24:30;99689.22;;;23.20
67829;BMP280;54626;45.436;10.942;2023-04-24T12:26:58;99685.47;;;22.59
67829;BMP280;54626;45.436;10.942;2023-04-24T12:29:31;99676.44;;;22.99
67829;BMP280;54626;45.436;10.942;2023-04-24T12:34:25;99671.53;;;23.00
67829;BMP280;54626;45.436;10.942;2023-04-24T12:36:52;99675.88;;;23.03
67829;BMP280;54626;45.436;10.942;2023-04-24T12:39:20;99670.69;;;23.34
67829;BMP280;54626;45.436;10.942;2023-04-24T12:41:56;99667.66;;;23.69
67829;BMP280;54626;45.436;10.942;2023-04-24T12:44:34;99661.53;;;23.76
67829;BMP280;54626;45.436;10.942;2023-04-24T12:47:01;99664.94;;;23.51
67829;BMP280;54626;45.436;10.942;2023-04-24T12:49:30;99660.69;;;23.72
67829;BMP280;54626;45.436;10.942;2023-04-24T12:51:56;99657.75;;;24.10
67829;BMP280;54626;45.436;10.942;2023-04-24T12:54:23;99653.59;;;23.92
67829;BMP280;54626;45.436;10.942;2023-04-24T12:56:49;99668.34;;;23.88
67829;BMP280;54626;45.436;10.942;2023-04-24T12:59:16;99652.75;;;23.87
67829;BMP280;54626;45.436;10.942;2023-04-24T13:01:43;99652.88;;;23.91
67829;BMP280;54626;45.436;10.942;2023-04-24T13:04:09;99646.91;;;24.03
67829;BMP280;54626;45.436;10.942;2023-04-24T13:06:36;99643.19;;;24.20
67829;BMP280;54626;45.436;10.942;2023-04-24T13:09:03;99637.91;;;24.32
67829;BMP280;54626;45.436;10.942;2023-04-24T13:11:34;99634.00;;;23.98
67829;BMP280;54626;45.436;10.942;2023-04-24T13:14:10;99638.22;;;24.18
67829;BMP280;54626;45.436;10.942;2023-04-24T13:16:37;99641.28;;;24.05
67829;BMP280;54626;45.436;10.942;2023-04-24T13:22:14;99639.63;;;22.59
67829;BMP280;54626;45.436;10.942;2023-04-24T13:24:43;99635.25;;;22.36
67829;BMP280;54626;45.436;10.942;2023-04-24T13:27:10;99637.50;;;22.57
67829;BMP280;54626;45.436;10.942;2023-04-24T13:29:37;99634.78;;;23.17
67829;BMP280;54626;45.436;10.942;2023-04-24T13:32:04;99639.22;;;23.22
67829;BMP280;54626;45.436;10.942;2023-04-24T13:34:32;99633.97;;;23.75
67829;BMP280;54626;45.436;10.942;2023-04-24T13:37:01;99628.53;;;24.25
67829;BMP280;54626;45.436;10.942;2023-04-24T13:39:30;99616.56;;;24.27
67829;BMP280;54626;45.436;10.942;2023-04-24T13:41:57;99619.44;;;24.52
67829;BMP280;54626;45.436;10.942;2023-04-24T13:44:24;99618.31;;;24.37
67829;BMP280;54626;45.436;10.942;2023-04-24T13:46:55;99619.88;;;24.19
67829;BMP280;54626;45.436;10.942;2023-04-24T13:49:23;99603.84;;;23.83
67829;BMP280;54626;45.436;10.942;2023-04-24T13:51:54;99616.59;;;24.05
67829;BMP280;54626;45.436;10.942;2023-04-24T13:54:21;99597.38;;;24.23
67829;BMP280;54626;45.436;10.942;2023-04-24T13:56:57;99591.66;;;24.95
67829;BMP280;54626;45.436;10.942;2023-04-24T13:59:24;99583.63;;;25.11
67829;BMP280;54626;45.436;10.942;2023-04-24T14:01:51;99589.72;;;24.76
67829;BMP280;54626;45.436;10.942;2023-04-24T14:04:18;99597.44;;;24.25
67829;BMP280;54626;45.436;10.942;2023-04-24T14:06:45;99600.00;;;23.73
67829;BMP280;54626;45.436;10.942;2023-04-24T14:09:12;99602.13;;;23.51
67829;BMP280;54626;45.436;10.942;2023-04-24T14:11:39;99604.72;;;23.66
67829;BMP280;54626;45.436;10.942;2023-04-24T14:14:06;99606.13;;;24.31
67829;BMP280;54626;45.436;10.942;2023-04-24T14:16:34;99610.88;;;24.73
67829;BMP280;54626;45.436;10.942;2023-04-24T14:19:01;99602.84;;;25.14